Latest Weather Observations for Casey*

IDT60801

Issued at 5:35 am EST Sunday 21 September 2014 (issued every 30 minutes, with the page automatically refreshed every 10 minutes)

About weather observations | Map of weather stations | Latest weather observations for ANT | Other Formats
Station Details ID: 300017 Name: CASEY Lat: -66.28 Lon: 110.52 Height: 40.0 m
Data from the previous 72 hours. | See also: Recent months at Casey*
Date/Time
EST
Temp
°C
App
Temp
°C
Dew
Point
Rel
Hum
%
Delta-T
°C
Wind Press
QNH
hPa
Press
MSL
hPa
Rain
since 9 am
mm
Dir
 
Spd
km/h
Gust
km/h
Spd
kts
Gust
kts
21/05:30am -11.8 -16.9 -15.2 76 - NE 9 11 5 6 998.9 - -
21/05:00am -11.6 -17.1 -15.1 75 - NNE 11 13 6 7 999.1 - -
21/04:30am -11.9 -17.4 -15.7 73 - NNE 11 13 6 7 999.3 - -
21/04:00am -11.6 -17.5 -15.8 71 - NE 13 17 7 9 999.9 1000.5 -
21/03:30am -11.3 -17.5 -14.5 77 - NNE 15 19 8 10 1000.0 - -
21/03:00am -11.4 -18.4 -14.8 76 - NE 19 20 10 11 1000.1 - -
21/02:30am -10.8 -16.9 -13.7 79 - NE 15 19 8 10 1000.1 - -
21/02:00am -9.5 -14.0 -11.2 87 - E 7 9 4 5 1000.1 - -
21/01:30am -8.9 -12.8 -10.5 88 - SE 4 7 2 4 1000.1 - -
21/01:00am -9.4 -14.3 -11.2 87 - ESE 9 13 5 7 1000.3 1000.9 -
21/12:30am -9.1 -13.5 -10.9 87 - SE 7 7 4 4 1000.5 - -
21/12:00am -9.3 -14.2 -11.5 84 - S 9 11 5 6 1000.6 - -
 
Date/Time
EST
Temp
°C
App
Temp
°C
Dew
Point
Rel
Hum
%
Delta-T
°C
Wind Press
QNH
hPa
Press
MSL
hPa
Rain
since 9 am
mm
Dir
 
Spd
km/h
Gust
km/h
Spd
kts
Gust
kts
20/11:30pm -8.8 -13.2 -10.9 85 - SSW 7 9 4 5 1000.8 - -
20/11:00pm -8.9 -13.2 -11.1 84 - SSE 6 9 3 5 1000.8 - -
20/10:30pm -9.0 -14.2 -10.8 87 - SE 11 13 6 7 1000.7 - -
20/10:00pm -9.1 -14.3 -10.7 88 - SE 11 13 6 7 1000.6 1001.2 -
20/09:30pm -8.9 -14.8 -10.2 90 - SSE 15 15 8 8 1000.7 - -
20/09:00pm -8.8 -14.7 -10.1 90 - SE 15 17 8 9 1000.6 - -
20/08:30pm -8.8 -15.1 -10.1 90 - SSE 17 20 9 11 1000.5 - -
20/08:00pm -8.8 -15.7 -10.6 87 - SE 20 26 11 14 1000.3 - -
20/07:30pm -8.9 -14.8 -10.5 88 - S 15 20 8 11 999.9 - -
20/07:00pm -8.9 -14.8 -10.2 90 - S 15 20 8 11 999.7 1000.3 -
20/06:30pm -9.1 -16.0 -10.6 89 - S 20 24 11 13 999.6 - -
20/06:00pm -9.1 -16.0 -10.4 90 - SSE 20 28 11 15 999.4 - -
20/05:30pm -8.9 -17.7 -10.5 88 - SSE 30 33 16 18 998.8 - -
20/05:00pm -8.1 -15.0 -11.1 79 - S 20 26 11 14 998.8 - -
20/04:30pm -7.4 -11.9 -11.2 74 - WNW 7 11 4 6 998.3 - -
20/04:00pm -7.3 -12.2 -12.5 66 - ENE 9 19 5 10 997.9 998.5 -
20/03:37pm -7.4 -16.8 -13.8 60 - SE 32 59 17 32 997.3 - -
20/03:30pm -7.5 -15.8 -14.7 56 - SE 26 35 14 19 997.0 - -
20/03:00pm -7.0 -13.6 -14.7 54 - S 17 26 9 14 997.0 - -
20/02:36pm -8.0 -19.1 -14.4 60 - SSE 41 63 22 34 996.5 - -
20/02:35pm -8.1 -18.9 -14.7 59 - SSE 39 52 21 28 996.7 - -
20/02:31pm -7.8 -19.8 -13.8 62 - SSW 46 57 25 31 995.6 - -
20/02:30pm -7.6 -18.3 -13.8 61 - S 39 67 21 36 995.8 - -
20/02:22pm -8.0 -19.5 -14.2 61 - S 43 67 23 36 996.2 - -
20/02:17pm -8.4 -21.2 -13.6 66 - S 50 59 27 32 995.8 - -
20/02:15pm -8.6 -22.6 -14.9 60 - SE 56 69 30 37 995.6 - -
20/02:00pm -8.6 -18.3 -16.0 55 - SE 33 54 18 29 996.0 - -
20/01:51pm -8.0 -17.6 -14.2 61 - S 33 52 18 28 995.7 - -
20/01:49pm -8.5 -20.1 -15.3 58 - SE 43 61 23 33 995.8 - -
20/01:48pm -8.4 -19.9 -15.2 58 - SE 43 56 23 30 995.8 - -
20/01:39pm -8.2 -23.2 -15.2 57 - E 61 85 33 46 994.0 - -
20/01:38pm -8.5 -22.7 -15.0 59 - E 57 69 31 37 994.3 - -
20/01:33pm -8.3 -27.9 -16.1 53 - E 85 104 46 56 992.3 - -
20/01:30pm -8.3 -27.8 -15.5 56 - E 85 100 46 54 992.2 - -
20/01:23pm -8.7 -28.6 -15.7 57 - E 87 104 47 56 992.3 - -
20/01:00pm -8.8 -31.5 -14.0 66 - E 102 124 55 67 990.3 990.8 -
20/12:57pm -9.6 -32.3 -13.5 73 - E 102 124 55 67 990.8 - -
20/12:31pm -9.6 -33.2 -12.9 77 - E 107 126 58 68 988.8 - -
20/12:30pm -9.5 -33.1 -12.8 77 - E 107 124 58 67 988.8 - -
20/12:03pm -10.3 -34.2 -12.5 84 - E 109 135 59 73 989.4 - -
20/12:00pm -10.0 -33.5 -12.3 83 - E 107 135 58 73 987.3 - -
20/11:30am -10.5 -34.8 -12.4 86 - E 111 150 60 81 987.8 - -
20/11:00am -10.5 -35.6 -12.1 88 - E 115 143 62 77 986.7 - -
20/10:30am -10.6 -37.4 -12.2 88 - E 124 146 67 79 985.7 - -
20/10:00am -10.8 -36.6 -12.2 89 - E 119 139 64 75 986.4 986.9 -
20/09:30am -11.2 -36.7 -12.5 90 - E 117 135 63 73 985.8 - -
20/09:00am -11.2 -35.5 -12.5 90 - E 111 133 60 72 986.6 - -
20/08:30am -11.5 -34.1 -12.8 90 - E 102 126 55 68 987.8 - -
20/08:28am -11.5 -33.7 -12.8 90 - E 100 126 54 68 987.5 - -
20/08:00am -11.5 -31.7 -12.8 90 - E 89 119 48 64 989.6 - -
20/07:30am -11.6 -31.8 -12.9 90 - ENE 89 119 48 64 990.2 - -
20/07:04am -11.6 -32.1 -13.0 89 - E 91 109 49 59 989.4 - -
20/07:00am -11.7 -31.9 -13.1 89 - E 89 106 48 57 989.5 990.0 -
20/06:34am -11.8 -31.2 -13.2 89 - E 85 104 46 56 989.9 - -
20/06:30am -11.7 -31.5 -13.3 88 - E 87 100 47 54 990.1 - -
20/06:00am -11.8 -30.8 -13.4 88 - E 83 102 45 55 990.0 - -
20/05:32am -11.9 -29.6 -13.5 88 - E 76 95 41 51 990.6 - -
20/05:30am -11.9 -29.2 -13.5 88 - E 74 89 40 48 990.8 - -
20/05:05am -12.2 -29.6 -13.6 89 - E 74 95 40 51 991.2 - -
20/05:00am -12.2 -29.9 -13.9 87 - E 76 91 41 49 991.2 - -
20/04:30am -12.4 -28.1 -14.8 82 - ESE 65 83 35 45 991.6 - -
20/04:04am -12.1 -28.6 -16.4 70 - ESE 69 87 37 47 991.8 - -
20/04:00am -12.1 -28.6 -16.4 70 - ESE 69 78 37 42 991.9 992.4 -
20/03:33am -11.6 -30.7 -17.6 61 - ESE 82 100 44 54 991.2 - -
20/03:30am -11.7 -31.0 -17.5 62 - ESE 83 100 45 54 991.2 - -
20/03:09am -11.3 -30.0 -17.9 58 - ESE 80 98 43 53 991.8 - -
20/03:00am -11.4 -29.7 -18.2 57 - ESE 78 95 42 51 992.0 - -
20/02:31am -11.7 -31.4 -17.9 60 - ESE 85 104 46 56 991.6 - -
20/02:30am -11.5 -31.5 -17.7 60 - ESE 87 104 47 56 990.9 - -
20/02:21am -11.9 -33.1 -17.9 61 - E 93 111 50 60 990.9 - -
20/02:00am -11.6 -34.5 -18.4 57 - E 102 122 55 66 988.9 - -
20/01:49am -11.9 -35.2 -18.1 60 - E 104 122 56 66 989.2 - -
20/01:30am -12.2 -35.5 -18.0 62 - E 104 120 56 65 989.2 - -
20/01:00am -12.3 -36.0 -18.2 61 - E 106 124 57 67 989.9 990.4 -
20/12:30am -12.7 -35.9 -16.8 71 - E 104 124 56 67 989.7 - -
20/12:00am -13.2 -35.2 -16.2 78 - ESE 98 117 53 63 989.4 - -
 
Date/Time
EST
Temp
°C
App
Temp
°C
Dew
Point
Rel
Hum
%
Delta-T
°C
Wind Press
QNH
hPa
Press
MSL
hPa
Rain
since 9 am
mm
Dir
 
Spd
km/h
Gust
km/h
Spd
kts
Gust
kts
19/11:41pm -12.8 -37.0 -18.2 64 - E 109 128 59 69 988.8 - -
19/11:30pm -13.0 -36.8 -18.0 66 - ESE 107 124 58 67 988.5 - -
19/11:00pm -12.7 -36.9 -18.6 61 - E 109 132 59 71 988.4 - -
19/10:30pm -12.2 -38.0 -19.1 56 - E 117 137 63 74 987.8 - -
19/10:21pm -11.9 -38.6 -19.3 54 - E 122 143 66 77 987.3 - -
19/10:00pm -11.6 -39.9 -19.2 53 - E 130 150 70 81 985.3 985.8 -
19/09:45pm -11.6 -42.7 -19.7 51 - E 145 165 78 89 983.9 - -
19/09:30pm -11.7 -43.4 -19.1 54 - E 148 170 80 92 981.5 - -
19/09:22pm -11.6 -44.8 -19.4 52 - E 156 174 84 94 980.9 - -
19/09:00pm -11.7 -45.8 -18.7 56 - E 161 187 87 101 978.8 - -
19/08:30pm -12.3 -47.9 -17.3 66 - E 169 189 91 102 978.1 - -
19/08:21pm -12.4 -48.9 -17.4 66 - E 174 195 94 105 977.9 - -
19/08:00pm -12.5 -50.2 -17.0 69 - E 180 208 97 112 975.9 - -
19/07:30pm -12.1 -50.4 -17.5 64 - E 183 211 99 114 973.8 - -
19/07:00pm -12.1 -50.3 -17.1 66 - E 183 209 99 113 974.0 - -
19/06:30pm -12.2 -49.8 -15.2 78 - E 180 211 97 114 973.1 - -
19/06:00pm -12.5 -49.3 -14.8 83 - E 176 208 95 112 973.8 - -
19/05:30pm -12.3 -49.5 -15.0 80 - E 178 200 96 108 973.9 - -
19/05:00pm -12.0 -48.0 -14.7 80 - E 172 200 93 108 974.6 - -
19/04:30pm -11.9 -47.9 -14.6 80 - E 172 195 93 105 975.1 - -
19/04:02pm -12.3 -47.0 -14.1 86 - E 165 195 89 105 974.4 - -
19/04:00pm -12.5 -46.0 -14.2 87 - E 159 191 86 103 976.6 977.1 -
19/03:59pm -12.4 -45.4 -14.2 86 - E 156 180 84 97 977.5 - -
19/03:58pm -12.3 -49.8 -14.4 84 - E 180 213 97 115 977.3 - -
19/03:57pm -12.3 -51.2 -14.7 82 - E 187 213 101 115 974.4 - -
19/03:56pm -12.2 -52.6 -14.3 84 - E 195 213 105 115 972.3 - -
19/03:50pm -12.1 -48.5 -15.0 79 - E 174 213 94 115 974.1 - -
19/03:47pm -12.3 -49.1 -14.4 84 - E 176 211 95 114 976.3 - -
19/03:44pm -12.1 -49.7 -14.7 81 - E 180 213 97 115 973.6 - -
19/03:42pm -12.4 -49.2 -14.4 85 - E 176 213 95 115 976.2 - -
19/03:30pm -12.4 -48.4 -14.2 86 - E 172 217 93 117 973.8 - -
19/03:28pm -12.5 -48.1 -14.3 86 - E 170 217 92 117 976.3 - -
19/03:25pm -12.3 -49.1 -14.1 86 - E 176 217 95 117 973.1 - -
19/03:20pm -12.5 -50.0 -14.5 85 - E 180 208 97 112 975.2 - -
19/03:18pm -12.4 -51.3 -14.5 84 - E 187 208 101 112 972.7 - -
19/03:00pm -12.5 -47.6 -14.3 86 - E 167 198 90 107 976.3 - -
19/02:49pm -12.5 -48.1 -14.5 85 - E 170 202 92 109 976.7 - -
19/02:47pm -12.4 -47.8 -14.4 85 - E 169 202 91 109 974.2 - -
19/02:44pm -12.5 -47.6 -14.5 85 - E 167 204 90 110 977.2 - -
19/02:36pm -12.4 -47.5 -14.2 86 - E 167 204 90 110 975.2 - -
19/02:34pm -12.5 -47.6 -14.5 85 - E 167 202 90 109 977.8 - -
19/02:31pm -12.4 -47.4 -14.1 87 - E 167 202 90 109 975.8 - -
19/02:30pm -12.6 -48.0 -14.3 87 - E 169 209 91 113 978.1 - -
19/02:29pm -12.6 -48.0 -14.3 87 - E 169 209 91 113 979.0 - -
19/02:28pm -12.6 -48.0 -14.3 87 - E 169 209 91 113 977.0 - -
19/02:27pm -12.5 -47.9 -14.2 87 - E 169 209 91 113 974.5 - -
19/02:23pm -12.8 -48.4 -14.5 87 - E 170 209 92 113 976.5 - -
19/02:21pm -12.7 -48.1 -14.4 87 - E 169 209 91 113 974.2 - -
19/02:18pm -12.8 -48.8 -14.8 85 - E 172 208 93 112 977.9 - -
19/02:16pm -12.7 -49.1 -14.8 84 - E 174 208 94 112 974.5 - -
19/02:13pm -12.9 -49.7 -14.7 86 - E 176 208 95 112 977.0 - -
19/02:10pm -12.7 -50.8 -14.5 86 - E 183 208 99 112 974.6 - -
19/02:09pm -12.7 -46.3 -14.7 85 - E 159 198 86 107 975.8 - -
19/02:08pm -12.9 -44.7 -14.6 87 - E 150 198 81 107 979.6 - -
19/02:05pm -12.5 -49.7 -14.6 84 - E 178 232 96 125 - - -
19/02:03pm -13.0 -49.0 -15.0 85 - E 172 211 93 114 978.4 - -
19/02:00pm -12.9 -48.4 -14.6 87 - E 169 198 91 107 975.0 - -
19/01:53pm -12.7 -47.4 -14.5 86 - E 165 198 89 107 976.5 - -
19/01:50pm -12.9 -48.4 -14.7 86 - E 169 206 91 111 980.4 - -
19/01:46pm -12.8 -47.9 -14.6 86 - E 167 206 90 111 976.2 - -
19/01:44pm -12.9 -47.6 -14.7 86 - E 165 206 89 111 979.1 - -
19/01:41pm -12.6 -47.3 -14.6 85 - E 165 206 89 111 976.4 - -
19/01:40pm -12.8 -46.2 -14.6 86 - E 158 183 85 99 977.2 - -
19/01:39pm -12.9 -46.3 -14.7 86 - E 158 172 85 93 979.3 - -
19/01:36pm -12.8 -50.9 -14.8 85 - E 183 208 99 112 976.2 - -
19/01:35pm -13.0 -46.9 -14.7 87 - E 161 202 87 109 977.0 - -
19/01:33pm -13.0 -46.6 -15.0 85 - E 159 196 86 106 979.9 - -
19/01:30pm -12.8 -46.7 -14.8 85 - E 161 196 87 106 977.5 - -
19/01:28pm -12.9 -46.3 -14.9 85 - E 158 196 85 106 976.5 - -
19/01:27pm -13.0 -45.2 -14.8 86 - E 152 189 82 102 979.5 - -
19/01:26pm -13.1 -44.2 -15.1 85 - E 146 165 79 89 981.2 - -
19/01:25pm -13.0 -48.1 -15.1 84 - E 167 213 90 115 981.1 - -
19/01:24pm -12.9 -48.4 -15.5 81 - E 169 213 91 115 978.5 - -
19/01:22pm -12.6 -47.7 -15.3 80 - E 167 213 90 115 975.0 - -
19/01:20pm -13.0 -47.3 -15.0 85 - E 163 209 88 113 980.7 - -
19/01:14pm -12.9 -48.4 -15.3 82 - E 169 209 91 113 977.9 - -
19/01:13pm -12.9 -48.6 -15.2 83 - E 170 209 92 113 980.4 - -
19/01:09pm -12.7 -47.8 -15.1 82 - E 167 202 90 109 977.4 - -
19/01:07pm -13.0 -48.5 -15.3 83 - E 169 208 91 112 979.9 - -
19/01:04pm -12.8 -47.9 -15.1 83 - E 167 208 90 112 976.9 - -
19/01:00pm -12.9 -49.0 -15.2 83 - E 172 208 93 112 978.9 979.5 -
19/12:58pm -12.6 -48.3 -15.3 80 - E 170 208 92 112 976.9 - -
19/12:54pm -12.8 -48.5 -15.1 83 - E 170 208 92 112 978.9 - -
19/12:52pm -12.4 -47.9 -15.0 81 - E 169 208 91 112 975.6 - -
19/12:41pm -12.7 -48.4 -14.8 84 - E 170 211 92 114 979.6 - -
19/12:38pm -12.4 -47.9 -14.7 83 - E 169 211 91 114 976.4 - -
19/12:35pm -12.3 -46.6 -14.9 81 - E 163 195 88 105 980.0 - -
19/12:30pm -12.4 -46.7 -14.5 84 - E 163 213 88 115 977.3 - -
19/12:27pm -12.6 -47.3 -14.7 84 - E 165 213 89 115 979.7 - -
19/12:24pm -12.3 -46.2 -14.7 82 - E 161 213 87 115 976.8 - -
19/12:22pm -12.6 -44.5 -15.3 80 - E 150 187 81 101 981.0 - -
19/12:20pm -11.7 -50.3 -16.2 69 - E 185 204 100 110 977.2 - -
19/12:00pm -12.6 -47.3 -14.7 84 - E 165 193 89 104 978.5 - -
19/11:49am -12.3 -47.4 -14.7 82 - E 167 198 90 107 979.0 - -
19/11:43am -12.4 -46.7 -14.4 85 - E 163 189 88 102 981.0 - -
19/11:31am -12.3 -47.0 -14.3 85 - E 165 206 89 111 978.9 - -
19/11:30am -12.4 -47.1 -14.5 84 - E 165 206 89 111 981.3 - -
19/11:29am -12.5 -47.6 -14.8 83 - E 167 206 90 111 982.2 - -
19/11:27am -12.1 -47.8 -15.1 78 - E 170 206 92 111 979.5 - -
19/11:24am -12.0 -47.1 -14.6 81 - E 167 206 90 111 977.3 - -
19/11:11am -11.9 -48.3 -14.8 79 - E 174 208 94 112 980.1 - -
19/11:09am -11.8 -49.4 -14.8 78 - E 180 208 97 112 977.5 - -
19/11:00am -12.3 -45.8 -14.1 86 - E 159 191 86 103 980.6 - -
19/10:56am -12.2 -45.7 -14.2 85 - E 159 191 86 103 979.8 - -
19/10:54am -12.3 -45.8 -14.3 85 - E 159 189 86 102 981.9 - -
19/10:42am -12.5 -47.2 -14.3 86 - E 165 198 89 107 979.4 - -
19/10:41am -12.7 -47.4 -14.5 86 - E 165 198 89 107 981.5 - -
19/10:30am -12.3 -46.3 -14.9 81 - E 161 196 87 106 979.4 - -
19/10:29am -12.3 -45.3 -14.6 83 - E 156 196 84 106 978.6 - -
19/10:28am -12.4 -44.6 -14.7 83 - E 152 176 82 95 980.4 - -
19/10:25am -12.0 -49.2 -15.5 75 - E 178 196 96 106 979.9 - -
19/10:24am -11.8 -49.4 -15.6 73 - E 180 196 97 106 979.3 - -
19/10:21am -12.2 -44.8 -14.9 80 - E 154 178 83 96 980.8 - -
19/10:19am -11.4 -49.4 -16.1 68 - E 182 204 98 110 980.0 - -
19/10:18am -11.1 -50.1 -16.4 65 - E 187 204 101 110 977.7 - -
19/10:17am -11.0 -45.8 -15.9 67 - E 165 204 89 110 978.7 - -
19/10:15am -12.2 -46.5 -15.1 79 - E 163 189 88 102 981.5 - -
19/10:08am -12.0 -46.0 -15.2 77 - E 161 198 87 107 979.1 - -
19/10:05am -12.1 -46.5 -15.4 76 - E 163 206 88 111 981.2 - -
19/10:02am -11.2 -44.6 -15.7 69 - E 158 206 85 111 979.2 - -
19/10:00am -12.1 -45.5 -15.1 78 - E 158 206 85 111 982.1 982.7 -
19/09:57am -11.3 -44.8 -16.4 66 - E 158 206 85 111 979.0 - -
19/09:54am -11.7 -44.8 -15.9 71 - E 156 193 84 104 981.4 - -
19/09:51am -11.5 -44.6 -16.6 66 - E 156 193 84 104 978.9 - -
19/09:50am -11.5 -44.6 -16.6 66 - E 156 191 84 103 982.1 - -
19/09:46am -11.0 -44.5 -17.6 58 - E 158 191 85 103 979.4 - -
19/09:44am -11.1 -44.6 -17.5 59 - E 158 191 85 103 982.0 - -
19/09:40am -11.1 -44.8 -16.9 62 - E 159 191 86 103 979.7 - -
19/09:38am -11.2 -45.3 -17.2 61 - E 161 195 87 105 981.9 - -
19/09:30am -11.0 -44.5 -17.4 59 - E 158 196 85 106 979.0 - -
19/09:29am -10.9 -44.4 -17.5 58 - E 158 196 85 106 979.1 - -
19/09:27am -11.2 -43.9 -17.2 61 - E 154 196 83 106 982.7 - -
19/09:24am -10.9 -43.6 -17.5 58 - E 154 196 83 106 979.6 - -
19/09:00am -10.8 -44.9 -17.2 59 - E 161 187 87 101 982.0 - -
19/08:30am -11.1 -46.6 -16.2 66 - E 169 202 91 109 980.2 - -
19/08:28am -11.4 -47.1 -15.8 70 - E 170 202 92 109 981.5 - -
19/08:25am -10.8 -46.0 -17.0 60 - E 167 202 90 109 979.2 - -
19/08:00am -10.9 -46.1 -16.3 64 - E 167 193 90 104 981.3 - -
19/07:30am -10.7 -45.1 -17.1 59 - E 163 196 88 106 980.6 - -
19/07:27am -10.3 -45.5 -17.8 54 - E 167 196 90 106 981.3 - -
19/07:25am -10.1 -44.9 -17.8 53 - E 165 196 89 106 978.8 - -
19/07:16am -10.8 -46.0 -16.6 62 - E 167 204 90 110 981.2 - -
19/07:14am -10.5 -45.7 -16.9 59 - E 167 208 90 112 979.0 - -
19/07:09am -11.4 -45.8 -15.3 73 - E 163 208 88 112 981.9 - -
19/07:06am -10.6 -44.6 -16.2 63 - E 161 208 87 112 979.7 - -
19/07:04am -11.7 -45.6 -14.6 79 - E 161 204 87 110 983.0 - -
19/07:02am -10.7 -45.1 -16.5 62 - E 163 204 88 110 980.0 - -
19/07:00am -10.7 -44.3 -16.0 65 - E 159 204 86 110 982.1 982.7 -
19/06:58am -11.6 -45.5 -14.5 79 - E 161 204 87 110 981.8 - -
19/06:55am -10.9 -44.5 -15.6 68 - E 159 204 86 110 979.3 - -
19/06:54am -11.3 -44.7 -14.4 78 - E 158 202 85 109 981.8 - -
19/06:53am -11.5 -45.0 -14.4 79 - E 159 195 86 105 983.8 - -
19/06:49am -11.3 -45.6 -14.5 77 - E 163 195 88 105 980.6 - -
19/06:47am -11.4 -45.7 -14.6 77 - E 163 195 88 105 983.2 - -
19/06:45am -10.9 -47.0 -15.1 71 - E 172 195 93 105 981.0 - -
19/06:44am -11.1 -42.9 -14.5 76 - E 150 195 81 105 980.5 - -
19/06:43am -11.4 -41.9 -14.1 80 - E 143 189 77 102 983.1 - -
19/06:42am -11.8 -40.8 -14.2 82 - E 135 163 73 88 984.2 - -
19/06:41am -11.5 -47.0 -15.0 75 - E 169 202 91 109 983.5 - -
19/06:39am -10.9 -48.9 -15.4 69 - E 182 202 98 109 981.0 - -
19/06:38am -10.7 -42.2 -15.6 67 - E 148 202 80 109 980.7 - -
19/06:37am -11.2 -40.6 -14.4 77 - E 137 195 74 105 984.0 - -
19/06:36am -11.9 -39.5 -14.2 83 - E 128 158 69 85 985.1 - -
19/06:35am -11.5 -46.2 -14.9 76 - E 165 200 89 108 983.5 - -
19/06:33am -11.0 -48.2 -15.0 72 - E 178 200 96 108 981.0 - -
19/06:30am -11.9 -43.3 -14.2 83 - E 148 183 80 99 984.8 - -
19/06:22am -11.8 -41.1 -13.9 84 - E 137 172 74 93 984.6 - -
19/06:21am -11.9 -40.5 -14.2 83 - E 133 150 72 81 985.2 - -
19/06:20am -11.6 -44.6 -14.8 77 - E 156 187 84 101 984.5 - -
19/06:17am -11.4 -44.4 -14.8 76 - E 156 187 84 101 982.4 - -
19/06:15am -11.8 -44.4 -14.2 82 - E 154 187 83 101 984.9 - -
19/06:00am -11.6 -44.2 -14.0 82 - E 154 180 83 97 982.9 - -
19/05:47am -10.8 -45.1 -15.0 71 - E 163 185 88 100 983.5 - -
19/05:40am -10.9 -40.3 -14.8 73 - E 137 172 74 93 984.2 - -
19/05:30am -10.0 -41.0 -17.7 53 - E 145 165 78 89 986.5 - -
19/05:29am -10.0 -42.0 -17.5 54 - E 150 165 81 89 985.5 - -
19/05:16am -10.0 -37.4 -17.5 54 - E 126 163 68 88 987.8 - -
19/05:13am -10.4 -37.0 -16.6 60 - E 122 156 66 84 989.9 - -
19/05:00am -10.3 -38.0 -16.0 63 - E 128 154 69 83 987.7 - -
19/04:55am -10.1 -37.9 -16.6 59 - E 128 154 69 83 987.3 - -
19/04:37am -10.1 -35.3 -14.9 68 - E 115 150 62 81 989.4 - -
19/04:35am -10.5 -34.5 -14.4 73 - E 109 130 59 70 990.1 - -
19/04:31am -10.4 -40.2 -14.5 72 - E 139 158 75 85 988.2 - -
19/04:30am -10.5 -36.1 -14.2 74 - E 117 158 63 85 988.6 - -
19/04:19am -11.1 -35.1 -14.0 79 - E 109 130 59 70 991.1 - -
19/04:18am -11.0 -35.8 -14.4 76 - E 113 130 61 70 991.2 - -
19/04:13am -11.3 -31.9 -13.3 85 - E 91 132 49 71 992.6 - -
19/04:11am -11.5 -30.6 -13.5 85 - E 83 109 45 59 993.1 - -
19/04:09am -11.3 -25.8 -14.0 80 - ESE 59 87 32 47 995.2 - -
19/04:03am -10.9 -24.5 -15.4 69 - SSE 54 89 29 48 995.7 - -
19/04:02am -10.9 -23.0 -15.4 69 - SSE 46 69 25 37 996.2 - -
19/04:00am -10.8 -26.9 -15.5 68 - SSE 67 85 36 46 995.2 995.7 -
19/03:57am -10.3 -26.4 -14.9 69 - SSE 67 85 36 46 996.2 - -
19/03:52am -10.5 -26.6 -14.5 72 - ESE 67 87 36 47 994.6 - -
19/03:49am -10.8 -20.3 -15.4 69 - SE 32 74 17 40 995.9 - -
19/03:46am -11.0 -28.8 -15.2 71 - S 76 96 41 52 994.8 - -
19/03:41am -10.4 -27.1 -15.5 66 - SE 70 100 38 54 995.8 - -
19/03:38am -10.1 -26.6 -15.4 65 - SE 69 83 37 45 995.6 - -
19/03:36am -9.8 -30.9 -15.3 64 - E 93 124 50 67 994.2 - -
19/03:32am -10.1 -30.8 -15.4 65 - E 91 124 49 67 991.9 - -
19/03:30am -10.7 -30.5 -14.1 76 - E 87 102 47 55 992.4 - -
19/03:28am -10.4 -35.6 -15.0 69 - E 115 139 62 75 991.2 - -
19/03:00am -10.6 -38.3 -15.5 67 - E 128 146 69 79 988.7 - -
19/02:30am -11.1 -38.7 -14.0 79 - E 128 150 69 81 989.5 - -
19/02:00am -11.0 -39.1 -14.9 73 - E 130 152 70 82 989.6 - -
19/01:30am -10.8 -38.4 -13.9 78 - E 128 150 69 81 989.3 - -
19/01:00am -10.8 -40.5 -14.2 76 - E 139 159 75 86 988.7 989.2 -
19/12:30am -10.7 -40.4 -14.4 74 - E 139 161 75 87 988.6 - -
19/12:00am -10.2 -39.9 -14.4 71 - E 139 165 75 89 988.1 - -
 
Date/Time
EST
Temp
°C
App
Temp
°C
Dew
Point
Rel
Hum
%
Delta-T
°C
Wind Press
QNH
hPa
Press
MSL
hPa
Rain
since 9 am
mm
Dir
 
Spd
km/h
Gust
km/h
Spd
kts
Gust
kts
18/11:31pm -9.7 -39.4 -13.8 72 - E 139 159 75 86 987.2 - -
18/11:30pm -9.8 -39.5 -13.7 73 - E 139 156 75 84 987.1 - -
18/11:00pm -9.6 -38.1 -11.9 83 - E 133 158 72 85 986.7 - -
18/10:30pm -9.7 -36.1 -11.7 85 - E 122 143 66 77 987.8 - -
18/10:11pm -10.1 -34.8 -11.8 87 - E 113 133 61 72 988.9 - -
18/10:00pm -9.9 -33.8 -11.6 87 - E 109 126 59 68 989.7 990.2 -
18/09:30pm -9.9 -33.8 -11.8 86 - E 109 128 59 69 990.4 - -
18/09:00pm -9.7 -33.6 -11.7 85 - E 109 132 59 71 989.3 - -
18/08:30pm -9.3 -33.1 -11.1 87 - E 109 128 59 69 989.1 - -
18/08:00pm -8.0 -31.3 -9.5 89 - E 107 135 58 73 988.5 - -
18/07:40pm -8.4 -32.9 -9.9 89 - E 113 132 61 71 987.6 - -
18/07:30pm -8.6 -33.5 -10.2 88 - E 115 132 62 71 987.4 - -
18/07:01pm -8.4 -33.3 -10.0 88 - E 115 133 62 72 986.7 - -
18/07:00pm -8.3 -32.8 -9.9 88 - E 113 130 61 70 986.8 987.3 -
18/06:30pm -8.4 -34.1 -10.3 86 - E 119 139 64 75 985.6 - -
18/06:00pm -9.1 -34.4 -10.7 88 - E 117 139 63 75 985.5 - -
18/05:30pm -8.6 -33.6 -11.3 81 - E 115 135 62 73 986.0 - -
18/05:00pm -8.5 -33.9 -12.0 76 - E 117 135 63 73 985.1 - -
18/04:30pm -7.7 -34.1 -12.7 67 - E 122 141 66 76 984.7 - -
18/04:01pm -7.7 -32.8 -12.9 66 - E 115 133 62 72 984.0 - -
18/04:00pm -7.7 -33.2 -12.7 67 - E 117 133 63 72 983.8 984.3 -
18/03:30pm -7.3 -33.3 -12.4 67 - E 120 141 65 76 983.9 - -
18/03:00pm -7.0 -34.5 -12.3 66 - E 128 146 69 79 984.0 - -
18/02:30pm -6.7 -33.1 -12.2 65 - E 122 145 66 78 983.5 - -
18/02:00pm -6.9 -32.0 -12.2 66 - E 115 133 62 72 983.8 - -
18/01:30pm -6.9 -32.7 -12.5 64 - E 119 141 64 76 983.2 - -
18/01:00pm -6.8 -32.6 -11.7 68 - E 119 137 64 74 983.9 984.4 -
18/12:30pm -7.1 -30.4 -11.4 71 - E 106 126 57 68 984.1 - -
18/12:00pm -6.9 -31.6 -13.1 61 - E 113 135 61 73 984.1 - -
18/11:30am -7.1 -32.3 -14.1 57 - E 115 133 62 72 983.5 - -
18/11:00am -6.9 -31.3 -13.1 61 - E 111 130 60 70 983.4 - -
18/10:30am -7.1 -30.7 -13.3 61 - E 107 130 58 70 983.9 - -
18/10:05am -6.9 -28.7 -12.5 64 - E 98 117 53 63 984.5 - -
18/10:00am -7.0 -28.5 -12.6 64 - E 96 109 52 59 985.1 985.6 -
18/09:30am -6.9 -28.2 -12.9 62 - E 95 113 51 61 984.8 - -
18/09:04am -7.2 -25.6 -12.6 65 - E 80 98 43 53 986.5 - -
18/09:02am -7.3 -25.7 -12.7 65 - E 80 91 43 49 986.2 - -
18/09:00am -7.3 -21.4 -12.5 66 - ESE 57 80 31 43 986.8 - -
18/08:58am -7.7 -20.8 -12.4 69 - ESE 52 72 28 39 987.5 - -
18/08:57am -8.8 -20.8 -12.9 72 - SE 46 57 25 31 987.8 - -
18/08:31am -8.0 -24.5 -14.6 59 - SE 69 102 37 55 986.1 - -
18/08:30am -8.2 -23.9 -14.4 61 - SE 65 83 35 45 986.3 - -
18/08:29am -8.6 -23.6 -14.9 60 - SE 61 69 33 37 986.6 - -
18/08:00am -8.3 -26.9 -14.9 59 - SE 80 98 43 53 986.9 - -
18/07:55am -9.2 -27.8 -16.3 56 - SE 80 98 43 53 987.2 - -
18/07:51am -9.1 -28.3 -16.5 55 - SE 83 98 45 53 987.0 - -
18/07:45am -8.5 -23.0 -14.1 64 - SE 59 80 32 43 987.6 - -
18/07:39am -8.1 -22.3 -15.3 56 - SE 57 65 31 35 987.6 - -

Other Formats:

Comma delimited format used in spreadsheet applications
http://www.bom.gov.au/fwo/IDT60803/IDT60803.89611.axf

JavaScript Object Notation format (JSON) in row-major order
http://www.bom.gov.au/fwo/IDT60803/IDT60803.89611.json